createdAt,value
2023-03-30T00:01:12.216Z,-2.50
2023-03-30T00:03:44.910Z,-2.48
2023-03-30T00:06:15.446Z,-2.45
2023-03-30T00:08:43.532Z,-2.45
2023-03-30T00:11:13.770Z,-2.46
2023-03-30T00:13:44.858Z,-2.48
2023-03-30T00:16:13.710Z,-2.47
2023-03-30T00:18:41.854Z,-2.46
2023-03-30T00:21:18.482Z,-2.47
2023-03-30T00:23:48.213Z,-2.48
2023-03-30T00:26:16.789Z,-2.46
2023-03-30T00:28:45.499Z,-2.47
2023-03-30T00:31:14.253Z,-2.47
2023-03-30T00:33:47.183Z,-2.46
2023-03-30T00:36:17.730Z,-2.43
2023-03-30T00:38:48.555Z,-2.43
2023-03-30T00:41:17.873Z,-2.43
2023-03-30T00:43:57.665Z,-2.44
2023-03-30T00:46:26.468Z,-2.42
2023-03-30T00:48:58.940Z,-2.42
2023-03-30T00:51:29.160Z,-2.42
2023-03-30T00:54:04.719Z,-2.44
2023-03-30T00:56:33.324Z,-2.47
2023-03-30T00:59:01.457Z,-2.49
2023-03-30T01:01:30.668Z,-2.50
2023-03-30T01:04:02.416Z,-2.49
2023-03-30T01:06:31.966Z,-2.49
2023-03-30T01:09:00.722Z,-2.51
2023-03-30T01:11:34.449Z,-2.50
2023-03-30T01:14:06.141Z,-2.50
2023-03-30T01:16:45.450Z,-2.48
2023-03-30T01:19:32.940Z,-2.50
2023-03-30T01:22:23.571Z,-2.54
2023-03-30T01:25:03.744Z,-2.56
2023-03-30T01:28:02.701Z,-2.58
2023-03-30T01:31:08.794Z,-2.61
2023-03-30T01:33:41.259Z,-2.60
2023-03-30T01:36:13.146Z,-2.59
2023-03-30T01:39:07.134Z,-2.58
2023-03-30T01:42:07.484Z,-2.61
2023-03-30T01:44:44.978Z,-2.64
2023-03-30T01:47:40.474Z,-2.60
2023-03-30T01:50:13.998Z,-2.59
2023-03-30T01:53:01.896Z,-2.62
2023-03-30T01:55:42.052Z,-2.65
2023-03-30T01:58:16.122Z,-2.67
2023-03-30T02:00:47.411Z,-2.69
2023-03-30T02:03:19.385Z,-2.70
2023-03-30T02:05:51.148Z,-2.71
2023-03-30T02:08:25.132Z,-2.71
2023-03-30T02:10:53.662Z,-2.72
2023-03-30T02:13:21.751Z,-2.69
2023-03-30T02:15:55.624Z,-2.68
2023-03-30T02:18:25.598Z,-2.69
2023-03-30T02:20:53.995Z,-2.71
2023-03-30T02:23:28.597Z,-2.70
2023-03-30T02:25:57.094Z,-2.72
2023-03-30T02:28:25.796Z,-2.76
2023-03-30T02:30:55.688Z,-2.77
2023-03-30T02:34:03.504Z,-2.77
2023-03-30T02:37:07.645Z,-2.78
2023-03-30T02:39:42.566Z,-2.82
2023-03-30T02:42:37.138Z,-2.83
2023-03-30T02:45:10.167Z,-2.80
2023-03-30T02:47:44.193Z,-2.81
2023-03-30T02:50:12.782Z,-2.82
2023-03-30T02:52:55.643Z,-2.84
2023-03-30T02:55:34.781Z,-2.88
2023-03-30T02:58:37.328Z,-2.90
2023-03-30T03:01:18.161Z,-2.92
2023-03-30T03:03:58.330Z,-2.96
2023-03-30T03:06:27.089Z,-2.99
2023-03-30T03:08:57.575Z,-2.99
2023-03-30T03:11:28.263Z,-2.99
2023-03-30T03:13:57.185Z,-2.99
2023-03-30T03:16:26.986Z,-3.03
2023-03-30T03:19:14.818Z,-3.06
2023-03-30T03:21:46.117Z,-3.07
2023-03-30T03:24:17.551Z,-3.08
2023-03-30T03:27:19.740Z,-3.08
2023-03-30T03:30:17.756Z,-3.07
2023-03-30T03:32:51.748Z,-3.07
2023-03-30T03:35:20.314Z,-3.08
2023-03-30T03:37:49.553Z,-3.10
2023-03-30T03:40:19.368Z,-3.10
2023-03-30T03:42:47.517Z,-3.07
2023-03-30T03:45:19.254Z,-3.03
2023-03-30T03:47:56.357Z,-3.00
2023-03-30T03:50:38.340Z,-2.95
2023-03-30T03:53:09.176Z,-2.90
2023-03-30T03:55:38.095Z,-2.88
2023-03-30T03:58:07.486Z,-2.88
2023-03-30T04:00:36.965Z,-2.85
2023-03-30T04:03:09.320Z,-2.85
2023-03-30T04:05:43.334Z,-2.88
2023-03-30T04:08:12.014Z,-2.94
2023-03-30T04:10:41.480Z,-2.97
2023-03-30T04:13:28.799Z,-2.99
2023-03-30T04:16:17.324Z,-3.00
2023-03-30T04:19:09.187Z,-2.99
2023-03-30T04:21:59.133Z,-3.00
2023-03-30T04:25:00.166Z,-2.94
2023-03-30T04:27:51.295Z,-2.87
2023-03-30T04:30:41.009Z,-2.83
2023-03-30T04:33:35.194Z,-2.80
2023-03-30T04:36:23.414Z,-2.78
2023-03-30T04:39:11.213Z,-2.76
2023-03-30T04:42:07.867Z,-2.75
2023-03-30T04:44:47.238Z,-2.71
2023-03-30T04:47:38.072Z,-2.66
2023-03-30T04:50:24.996Z,-2.61
2023-03-30T04:53:11.860Z,-2.52
2023-03-30T04:56:02.865Z,-2.45
2023-03-30T04:58:40.248Z,-2.40
2023-03-30T05:01:28.756Z,-2.35
2023-03-30T05:04:00.143Z,-2.31
2023-03-30T05:06:49.907Z,-2.23
2023-03-30T05:09:24.360Z,-2.18
2023-03-30T05:12:14.893Z,-2.11
2023-03-30T05:14:53.959Z,-2.05
2023-03-30T05:17:38.879Z,-1.98
2023-03-30T05:20:42.572Z,-1.90
2023-03-30T05:23:31.152Z,-1.83
2023-03-30T05:26:24.094Z,-1.76
2023-03-30T05:29:18.617Z,-1.72
2023-03-30T05:32:05.706Z,-1.67
2023-03-30T05:34:52.571Z,-1.62
2023-03-30T05:37:40.077Z,-1.59
2023-03-30T05:40:27.262Z,-1.53
2023-03-30T05:43:15.766Z,-1.46
2023-03-30T05:46:07.599Z,-1.43
2023-03-30T05:48:50.270Z,-1.40
2023-03-30T05:51:37.144Z,-1.38
2023-03-30T05:54:12.880Z,-1.34
2023-03-30T05:57:01.492Z,-1.34
2023-03-30T05:59:37.294Z,-1.28
2023-03-30T06:02:25.433Z,-1.26
2023-03-30T06:04:58.199Z,-1.21
2023-03-30T06:07:26.307Z,-1.16
2023-03-30T06:09:55.014Z,-1.10
2023-03-30T06:12:26.787Z,-1.06
2023-03-30T06:14:55.493Z,-1.01
2023-03-30T06:17:32.704Z,-0.92
2023-03-30T06:20:01.275Z,-0.85
2023-03-30T06:22:35.695Z,-0.79
2023-03-30T06:25:09.092Z,-0.74
2023-03-30T06:27:37.512Z,-0.68
2023-03-30T06:30:06.938Z,-0.61
2023-03-30T06:32:42.386Z,-0.55
2023-03-30T06:35:16.428Z,-0.52
2023-03-30T06:37:45.042Z,-0.45
2023-03-30T06:40:14.135Z,-0.40
2023-03-30T06:42:44.918Z,-0.34
2023-03-30T06:45:31.736Z,-0.25
2023-03-30T06:48:00.795Z,-0.17
2023-03-30T06:50:29.266Z,-0.11
2023-03-30T06:53:05.984Z,-0.05
2023-03-30T06:55:42.251Z,0.01
2023-03-30T06:58:27.395Z,0.04
2023-03-30T07:01:20.828Z,0.08
2023-03-30T07:03:58.184Z,0.13
2023-03-30T07:06:44.024Z,0.15
2023-03-30T07:09:13.216Z,0.19
2023-03-30T07:11:45.296Z,0.26
2023-03-30T07:14:14.854Z,0.26
2023-03-30T07:16:43.652Z,0.28
2023-03-30T07:19:11.873Z,0.29
2023-03-30T07:21:41.807Z,0.32
2023-03-30T07:24:12.920Z,0.35
2023-03-30T07:26:42.574Z,0.39
2023-03-30T07:29:11.280Z,0.44
2023-03-30T07:31:41.655Z,0.49
2023-03-30T07:34:12.226Z,0.56
2023-03-30T07:36:44.473Z,0.64
2023-03-30T07:39:17.021Z,0.67
2023-03-30T07:41:46.184Z,0.66
2023-03-30T07:44:14.922Z,0.69
2023-03-30T07:46:45.166Z,0.75
2023-03-30T07:49:18.915Z,0.83
2023-03-30T07:51:53.712Z,0.92
2023-03-30T07:54:28.810Z,0.99
2023-03-30T07:57:05.315Z,1.02
2023-03-30T07:59:34.021Z,1.04
2023-03-30T08:02:27.318Z,1.06
2023-03-30T08:04:56.451Z,1.07
2023-03-30T08:07:35.223Z,1.12
2023-03-30T08:10:10.469Z,1.17
2023-03-30T08:12:40.180Z,1.22
2023-03-30T08:15:09.644Z,1.39
2023-03-30T08:17:37.895Z,1.59
2023-03-30T08:20:11.780Z,1.78
2023-03-30T08:22:41.719Z,1.94
2023-03-30T08:25:10.016Z,2.13
2023-03-30T08:27:39.394Z,2.34
2023-03-30T08:30:08.369Z,2.50
2023-03-30T08:32:37.188Z,2.52
2023-03-30T08:35:06.163Z,2.46
2023-03-30T08:37:35.005Z,2.61
2023-03-30T08:40:11.644Z,2.85
2023-03-30T08:42:45.279Z,2.89
2023-03-30T08:45:16.599Z,3.10
2023-03-30T08:47:49.103Z,3.44
2023-03-30T08:50:19.272Z,3.75
2023-03-30T08:52:47.351Z,3.95
2023-03-30T08:55:31.989Z,4.26
2023-03-30T08:58:22.744Z,4.69
2023-03-30T09:00:57.224Z,5.28
2023-03-30T09:03:49.150Z,5.92
2023-03-30T09:06:27.854Z,6.49
2023-03-30T09:08:56.501Z,6.67
2023-03-30T09:11:30.640Z,6.81
2023-03-30T09:14:03.157Z,7.08
2023-03-30T09:16:46.476Z,7.13
2023-03-30T09:19:20.656Z,7.28
2023-03-30T09:21:49.301Z,7.11
2023-03-30T09:24:21.720Z,7.09
2023-03-30T09:26:53.192Z,6.95
2023-03-30T09:29:26.675Z,7.24
2023-03-30T09:32:03.707Z,7.35
2023-03-30T09:34:46.883Z,7.46
2023-03-30T09:37:18.868Z,7.90
2023-03-30T09:39:48.198Z,8.57
2023-03-30T09:42:39.389Z,9.12
2023-03-30T09:45:17.680Z,9.21
2023-03-30T09:47:46.972Z,8.83
2023-03-30T09:50:24.270Z,9.14
2023-03-30T09:53:03.657Z,9.43
2023-03-30T09:55:32.636Z,8.64
2023-03-30T09:58:21.450Z,8.38
2023-03-30T10:01:07.187Z,8.53
2023-03-30T10:03:37.343Z,8.57
2023-03-30T10:06:13.042Z,8.55
2023-03-30T10:08:51.700Z,8.24
2023-03-30T10:11:41.881Z,8.45
2023-03-30T10:14:27.585Z,8.75
2023-03-30T10:16:58.084Z,8.59
2023-03-30T10:19:29.357Z,8.29
2023-03-30T10:21:58.989Z,8.43
2023-03-30T10:24:33.346Z,8.83
2023-03-30T10:27:14.382Z,8.72
2023-03-30T10:29:46.684Z,8.35
2023-03-30T10:32:20.955Z,8.27
2023-03-30T10:34:52.385Z,8.45
2023-03-30T10:37:28.138Z,9.22
2023-03-30T10:39:56.908Z,10.01
2023-03-30T10:42:26.407Z,10.33
2023-03-30T10:44:58.364Z,10.45
2023-03-30T10:47:33.018Z,10.47
2023-03-30T10:50:08.082Z,9.95
2023-03-30T10:53:04.537Z,9.44
2023-03-30T10:55:44.389Z,9.65
2023-03-30T10:58:43.861Z,10.07
2023-03-30T11:01:22.276Z,10.56
2023-03-30T11:03:54.860Z,11.17
2023-03-30T11:06:28.036Z,11.68
2023-03-30T11:09:02.344Z,11.88
2023-03-30T11:11:36.822Z,11.76
2023-03-30T11:14:26.181Z,11.73
2023-03-30T11:17:15.882Z,11.74
2023-03-30T11:19:56.634Z,10.97
2023-03-30T11:22:54.841Z,10.88
2023-03-30T11:25:30.172Z,10.22
2023-03-30T11:28:05.129Z,10.11
2023-03-30T11:30:33.932Z,9.95
2023-03-30T11:33:08.719Z,9.52
2023-03-30T11:36:02.269Z,9.55
2023-03-30T11:38:42.314Z,9.75
2023-03-30T11:41:13.997Z,10.15
2023-03-30T11:43:45.660Z,10.59
2023-03-30T11:46:27.964Z,11.42
2023-03-30T11:49:11.370Z,11.91
2023-03-30T11:52:05.766Z,12.34
2023-03-30T11:55:03.052Z,12.52
2023-03-30T11:57:38.793Z,11.39
2023-03-30T12:00:29.432Z,10.69
2023-03-30T12:03:25.982Z,10.31
2023-03-30T12:06:06.632Z,9.67
2023-03-30T12:08:55.852Z,9.35
2023-03-30T12:11:27.573Z,9.48
2023-03-30T12:13:55.959Z,10.17
2023-03-30T12:16:47.006Z,10.62
2023-03-30T12:19:15.632Z,10.66
2023-03-30T12:21:55.899Z,10.55
2023-03-30T12:24:34.011Z,10.05
2023-03-30T12:27:05.822Z,10.16
2023-03-30T12:32:29.674Z,9.93
2023-03-30T12:34:58.640Z,10.51
2023-03-30T12:37:28.575Z,11.06
2023-03-30T12:40:00.301Z,10.76
2023-03-30T12:42:35.923Z,10.78
2023-03-30T12:45:29.196Z,10.64
2023-03-30T12:48:07.562Z,10.54
2023-03-30T12:50:49.492Z,10.81
2023-03-30T12:53:59.315Z,10.50
2023-03-30T12:56:31.616Z,10.95
2023-03-30T12:59:23.040Z,11.53
2023-03-30T13:01:54.693Z,12.12
2023-03-30T13:04:25.342Z,12.34
2023-03-30T13:06:58.169Z,11.95
2023-03-30T13:09:26.384Z,11.44
2023-03-30T13:11:54.606Z,11.27
2023-03-30T13:14:27.738Z,11.59
2023-03-30T13:16:56.335Z,12.16
2023-03-30T13:19:32.219Z,12.32
2023-03-30T13:22:11.208Z,12.15
2023-03-30T13:24:42.403Z,12.41
2023-03-30T13:27:19.505Z,12.09
2023-03-30T13:29:56.833Z,11.87
2023-03-30T13:32:53.975Z,12.59
2023-03-30T13:35:28.586Z,13.33
2023-03-30T13:38:16.982Z,13.05
2023-03-30T13:41:04.687Z,11.97
2023-03-30T13:43:43.021Z,11.27
2023-03-30T13:47:01.417Z,11.69
2023-03-30T13:49:32.691Z,12.49
2023-03-30T13:52:06.555Z,12.65
2023-03-30T13:54:35.010Z,12.41
2023-03-30T13:57:09.749Z,12.05
2023-03-30T13:59:43.042Z,11.60
2023-03-30T14:02:17.045Z,11.49
2023-03-30T14:04:51.136Z,11.56
2023-03-30T14:07:21.303Z,12.28
2023-03-30T14:10:12.779Z,12.72
2023-03-30T14:12:42.736Z,13.01
2023-03-30T14:15:20.058Z,13.36
2023-03-30T14:17:50.242Z,14.01
2023-03-30T14:20:44.609Z,14.45
2023-03-30T14:23:16.701Z,14.69
2023-03-30T14:25:45.611Z,14.40
2023-03-30T14:28:16.964Z,13.61
2023-03-30T14:30:58.911Z,13.11
2023-03-30T14:33:27.357Z,13.38
2023-03-30T14:35:57.439Z,12.97
2023-03-30T14:38:38.468Z,12.61
2023-03-30T14:41:09.414Z,12.60
2023-03-30T14:43:40.602Z,12.40
2023-03-30T14:46:11.843Z,12.39
2023-03-30T14:48:41.951Z,12.35
2023-03-30T14:51:27.792Z,12.78
2023-03-30T14:53:56.070Z,13.04
2023-03-30T14:56:28.700Z,13.08
2023-03-30T14:58:56.890Z,13.13
2023-03-30T15:01:31.414Z,13.31
2023-03-30T15:04:05.997Z,13.27
2023-03-30T15:06:35.943Z,13.12
2023-03-30T15:09:17.126Z,13.01
2023-03-30T15:11:46.684Z,13.08
2023-03-30T15:14:18.831Z,13.01
2023-03-30T15:16:50.537Z,12.57
2023-03-30T15:19:34.576Z,12.28
2023-03-30T15:22:05.122Z,11.99
2023-03-30T15:24:34.839Z,11.82
2023-03-30T15:27:05.902Z,11.52
2023-03-30T15:29:34.002Z,11.56
2023-03-30T15:32:18.352Z,11.58
2023-03-30T15:35:07.314Z,11.37
2023-03-30T15:37:36.663Z,11.04
2023-03-30T15:40:31.830Z,10.77
2023-03-30T15:43:19.487Z,10.36
2023-03-30T15:45:52.846Z,10.19
2023-03-30T15:48:28.262Z,9.94
2023-03-30T15:51:04.763Z,9.62
2023-03-30T15:53:55.195Z,9.36
2023-03-30T15:57:18.389Z,9.13
2023-03-30T15:59:51.001Z,9.07
2023-03-30T16:02:41.389Z,9.14
2023-03-30T16:05:20.059Z,9.02
2023-03-30T16:07:48.771Z,8.72
2023-03-30T16:10:26.753Z,8.26
2023-03-30T16:12:59.514Z,7.83
2023-03-30T16:15:29.882Z,7.53
2023-03-30T16:17:58.942Z,7.19
2023-03-30T16:20:31.472Z,6.92
2023-03-30T16:22:59.639Z,6.76
2023-03-30T16:25:37.816Z,6.60
2023-03-30T16:28:16.441Z,6.49
2023-03-30T16:30:47.238Z,6.39
2023-03-30T16:33:17.567Z,6.24
2023-03-30T16:35:46.744Z,6.07
2023-03-30T16:38:17.827Z,5.89
2023-03-30T16:40:53.800Z,5.73
2023-03-30T16:43:22.084Z,5.58
2023-03-30T16:45:51.532Z,5.45
2023-03-30T16:48:24.491Z,5.31
2023-03-30T16:50:53.958Z,5.20
2023-03-30T16:53:22.138Z,5.09
2023-03-30T16:55:50.302Z,5.01
2023-03-30T16:58:26.515Z,4.95
2023-03-30T17:01:02.995Z,4.89
2023-03-30T17:03:32.466Z,4.81
2023-03-30T17:06:00.777Z,4.71
2023-03-30T17:08:29.876Z,4.63
2023-03-30T17:11:03.707Z,4.57
2023-03-30T17:13:37.465Z,4.51
2023-03-30T17:16:27.541Z,4.43
2023-03-30T17:19:01.133Z,4.35
2023-03-30T17:21:29.982Z,4.24
2023-03-30T17:23:58.286Z,4.14
2023-03-30T17:26:28.711Z,4.06
2023-03-30T17:28:57.727Z,4.01
2023-03-30T17:31:27.913Z,3.95
2023-03-30T17:33:57.620Z,3.88
2023-03-30T17:36:26.778Z,3.80
2023-03-30T17:39:00.091Z,3.73
2023-03-30T17:41:28.168Z,3.65
2023-03-30T17:43:56.214Z,3.53
2023-03-30T17:46:24.345Z,3.48
2023-03-30T17:48:52.487Z,3.44
2023-03-30T17:51:20.810Z,3.41
2023-03-30T17:53:49.252Z,3.40
2023-03-30T17:56:22.664Z,3.42
2023-03-30T17:58:53.272Z,3.43
2023-03-30T18:01:21.504Z,3.43
2023-03-30T18:03:49.889Z,3.41
2023-03-30T18:06:18.373Z,3.40
2023-03-30T18:08:58.149Z,3.35
2023-03-30T18:11:30.006Z,3.30
2023-03-30T18:14:02.114Z,3.26
2023-03-30T18:16:30.382Z,3.19
2023-03-30T18:18:59.493Z,3.12
2023-03-30T18:21:27.929Z,3.06
2023-03-30T18:23:57.102Z,3.00
2023-03-30T18:26:26.298Z,2.95
2023-03-30T18:28:54.356Z,2.89
2023-03-30T18:31:23.325Z,2.84
2023-03-30T18:33:53.390Z,2.81
2023-03-30T18:36:21.898Z,2.80
2023-03-30T18:38:50.551Z,2.79
2023-03-30T18:41:18.628Z,2.77
2023-03-30T18:43:47.580Z,2.71
2023-03-30T18:46:15.724Z,2.67
2023-03-30T18:48:44.510Z,2.64
2023-03-30T18:51:12.988Z,2.63
2023-03-30T18:53:42.681Z,2.65
2023-03-30T18:56:12.170Z,2.69
2023-03-30T18:58:43.894Z,2.72
2023-03-30T19:01:15.987Z,2.77
2023-03-30T19:03:45.352Z,2.85
2023-03-30T19:06:19.858Z,2.91
2023-03-30T19:08:50.086Z,2.95
2023-03-30T19:11:23.403Z,2.99
2023-03-30T19:13:51.834Z,3.04
2023-03-30T19:16:21.119Z,3.10
2023-03-30T19:18:50.818Z,3.19
2023-03-30T19:21:18.954Z,3.25
2023-03-30T19:23:47.532Z,3.32
2023-03-30T19:26:15.774Z,3.38
2023-03-30T19:28:44.044Z,3.42
2023-03-30T19:31:15.990Z,3.46
2023-03-30T19:33:44.204Z,3.51
2023-03-30T19:36:14.233Z,3.56
2023-03-30T19:38:44.374Z,3.60
2023-03-30T19:41:14.953Z,3.62
2023-03-30T19:43:45.616Z,3.64
2023-03-30T19:46:13.711Z,3.65
2023-03-30T19:48:42.147Z,3.65
2023-03-30T19:51:10.852Z,3.65
2023-03-30T19:53:47.623Z,3.65
2023-03-30T19:56:25.205Z,3.67
2023-03-30T19:58:53.800Z,3.71
2023-03-30T20:01:22.287Z,3.73
2023-03-30T20:03:51.744Z,3.75
2023-03-30T20:06:19.934Z,3.74
2023-03-30T20:08:48.122Z,3.71
2023-03-30T20:11:16.662Z,3.68
2023-03-30T20:13:46.081Z,3.67
2023-03-30T20:16:21.456Z,3.67
2023-03-30T20:18:54.653Z,3.68
2023-03-30T20:21:25.302Z,3.68
2023-03-30T20:23:56.106Z,3.67
2023-03-30T20:26:27.711Z,3.66
2023-03-30T20:28:57.042Z,3.65
2023-03-30T20:31:25.834Z,3.64
2023-03-30T20:33:55.604Z,3.59
2023-03-30T20:36:25.425Z,3.55
2023-03-30T20:38:55.511Z,3.52
2023-03-30T20:41:23.593Z,3.52
2023-03-30T20:43:57.251Z,3.52
2023-03-30T20:46:35.043Z,3.53
2023-03-30T20:49:04.648Z,3.54
2023-03-30T20:51:33.509Z,3.55
2023-03-30T20:54:02.034Z,3.57
2023-03-30T20:56:33.347Z,3.58
2023-03-30T20:59:02.412Z,3.57
2023-03-30T21:01:31.270Z,3.58
2023-03-30T21:04:01.876Z,3.60
2023-03-30T21:06:31.185Z,3.60
2023-03-30T21:09:02.894Z,3.61
2023-03-30T21:11:33.592Z,3.58
2023-03-30T21:14:02.247Z,3.57
2023-03-30T21:16:31.806Z,3.56
2023-03-30T21:19:00.996Z,3.55
2023-03-30T21:21:31.498Z,3.54
2023-03-30T21:24:01.876Z,3.53
2023-03-30T21:26:30.500Z,3.52
2023-03-30T21:28:58.804Z,3.52
2023-03-30T21:31:28.530Z,3.51
2023-03-30T21:33:57.662Z,3.50
2023-03-30T21:36:25.815Z,3.51
2023-03-30T21:38:56.127Z,3.54
2023-03-30T21:41:26.355Z,3.57
2023-03-30T21:43:54.631Z,3.59
2023-03-30T21:46:23.911Z,3.60
2023-03-30T21:48:55.884Z,3.61
2023-03-30T21:51:31.582Z,3.63
2023-03-30T21:54:01.515Z,3.65
2023-03-30T21:56:30.281Z,3.67
2023-03-30T21:58:58.829Z,3.69
2023-03-30T22:01:27.265Z,3.68
2023-03-30T22:03:55.921Z,3.68
2023-03-30T22:06:24.941Z,3.64
2023-03-30T22:08:53.434Z,3.61
2023-03-30T22:11:23.219Z,3.60
2023-03-30T22:13:52.313Z,3.59
2023-03-30T22:16:22.957Z,3.58
2023-03-30T22:18:56.397Z,3.57
2023-03-30T22:21:26.147Z,3.55
2023-03-30T22:23:54.950Z,3.54
2023-03-30T22:26:23.063Z,3.54
2023-03-30T22:28:51.381Z,3.54
2023-03-30T22:31:23.444Z,3.54
2023-03-30T22:33:53.368Z,3.55
2023-03-30T22:36:26.438Z,3.54
2023-03-30T22:38:57.499Z,3.51
2023-03-30T22:41:26.697Z,3.48
2023-03-30T22:43:56.924Z,3.46
2023-03-30T22:46:26.306Z,3.44
2023-03-30T22:48:56.004Z,3.44
2023-03-30T22:51:27.444Z,3.44
2023-03-30T22:53:58.323Z,3.39
2023-03-30T22:56:32.191Z,3.38
2023-03-30T22:59:01.432Z,3.40
2023-03-30T23:01:32.418Z,3.41
2023-03-30T23:04:05.085Z,3.43
2023-03-30T23:06:34.436Z,3.44
2023-03-30T23:09:03.946Z,3.44
2023-03-30T23:11:34.477Z,3.44
2023-03-30T23:14:05.463Z,3.44
2023-03-30T23:16:37.639Z,3.43
2023-03-30T23:19:07.415Z,3.43
2023-03-30T23:21:36.840Z,3.44
2023-03-30T23:24:11.367Z,3.47
2023-03-30T23:26:41.369Z,3.45
2023-03-30T23:29:09.380Z,3.41
2023-03-30T23:31:38.268Z,3.38
2023-03-30T23:34:08.574Z,3.34
2023-03-30T23:36:37.731Z,3.33
2023-03-30T23:39:06.065Z,3.33
2023-03-30T23:41:34.528Z,3.32
2023-03-30T23:44:02.552Z,3.32
2023-03-30T23:46:30.978Z,3.31
2023-03-30T23:48:59.406Z,3.32
2023-03-30T23:51:27.982Z,3.36
2023-03-30T23:54:00.179Z,3.38
2023-03-30T23:56:32.175Z,3.39
2023-03-30T23:59:00.694Z,3.40
